sensor_id;sensor_type;location;lat;lon;timestamp;P1;durP1;ratioP1;P2;durP2;ratioP2
6852;SDS011;3465;42.144;24.722;2022-11-30T00:00:33;26.33;;;11.43;;
6852;SDS011;3465;42.144;24.722;2022-11-30T00:03:00;26.40;;;11.57;;
6852;SDS011;3465;42.144;24.722;2022-11-30T00:05:25;26.80;;;11.73;;
6852;SDS011;3465;42.144;24.722;2022-11-30T00:07:51;27.27;;;12.07;;
6852;SDS011;3465;42.144;24.722;2022-11-30T00:10:18;29.53;;;12.50;;
6852;SDS011;3465;42.144;24.722;2022-11-30T00:12:44;26.87;;;11.67;;
6852;SDS011;3465;42.144;24.722;2022-11-30T00:15:10;27.80;;;12.57;;
6852;SDS011;3465;42.144;24.722;2022-11-30T00:17:38;27.73;;;12.87;;
6852;SDS011;3465;42.144;24.722;2022-11-30T00:20:07;27.67;;;12.17;;
6852;SDS011;3465;42.144;24.722;2022-11-30T00:22:33;23.67;;;10.27;;
6852;SDS011;3465;42.144;24.722;2022-11-30T00:24:58;26.43;;;11.53;;
6852;SDS011;3465;42.144;24.722;2022-11-30T00:27:27;27.03;;;10.63;;
6852;SDS011;3465;42.144;24.722;2022-11-30T00:29:53;23.00;;;10.57;;
6852;SDS011;3465;42.144;24.722;2022-11-30T00:32:18;28.13;;;11.27;;
6852;SDS011;3465;42.144;24.722;2022-11-30T00:34:44;24.73;;;11.30;;
6852;SDS011;3465;42.144;24.722;2022-11-30T00:37:09;24.17;;;10.77;;
6852;SDS011;3465;42.144;24.722;2022-11-30T00:39:34;26.77;;;11.60;;
6852;SDS011;3465;42.144;24.722;2022-11-30T00:42:00;29.30;;;12.60;;
6852;SDS011;3465;42.144;24.722;2022-11-30T00:44:25;27.70;;;12.10;;
6852;SDS011;3465;42.144;24.722;2022-11-30T00:46:50;23.40;;;10.23;;
6852;SDS011;3465;42.144;24.722;2022-11-30T00:49:16;20.40;;;9.53;;
6852;SDS011;3465;42.144;24.722;2022-11-30T00:51:41;18.43;;;8.90;;
6852;SDS011;3465;42.144;24.722;2022-11-30T00:54:06;21.07;;;9.80;;
6852;SDS011;3465;42.144;24.722;2022-11-30T00:56:32;17.23;;;7.90;;
6852;SDS011;3465;42.144;24.722;2022-11-30T00:58:57;18.90;;;8.27;;
6852;SDS011;3465;42.144;24.722;2022-11-30T01:01:23;15.00;;;7.10;;
6852;SDS011;3465;42.144;24.722;2022-11-30T01:03:48;14.97;;;7.03;;
6852;SDS011;3465;42.144;24.722;2022-11-30T01:06:13;14.10;;;6.70;;
6852;SDS011;3465;42.144;24.722;2022-11-30T01:08:39;16.83;;;6.27;;
6852;SDS011;3465;42.144;24.722;2022-11-30T01:11:05;12.67;;;6.10;;
6852;SDS011;3465;42.144;24.722;2022-11-30T01:13:42;13.33;;;6.23;;
6852;SDS011;3465;42.144;24.722;2022-11-30T01:16:12;11.37;;;5.33;;
6852;SDS011;3465;42.144;24.722;2022-11-30T01:18:39;9.37;;;5.67;;
6852;SDS011;3465;42.144;24.722;2022-11-30T01:21:07;15.53;;;6.07;;
6852;SDS011;3465;42.144;24.722;2022-11-30T01:23:33;13.80;;;6.17;;
6852;SDS011;3465;42.144;24.722;2022-11-30T01:25:58;13.40;;;6.63;;
6852;SDS011;3465;42.144;24.722;2022-11-30T01:28:24;14.57;;;7.10;;
6852;SDS011;3465;42.144;24.722;2022-11-30T01:30:56;15.00;;;6.97;;
6852;SDS011;3465;42.144;24.722;2022-11-30T01:33:22;16.13;;;7.70;;
6852;SDS011;3465;42.144;24.722;2022-11-30T01:35:47;16.67;;;8.20;;
6852;SDS011;3465;42.144;24.722;2022-11-30T01:38:12;17.33;;;7.67;;
6852;SDS011;3465;42.144;24.722;2022-11-30T01:40:38;18.17;;;8.43;;
6852;SDS011;3465;42.144;24.722;2022-11-30T01:43:08;19.30;;;8.70;;
6852;SDS011;3465;42.144;24.722;2022-11-30T01:45:35;17.33;;;8.17;;
6852;SDS011;3465;42.144;24.722;2022-11-30T01:48:00;19.77;;;8.70;;
6852;SDS011;3465;42.144;24.722;2022-11-30T01:50:27;18.93;;;9.40;;
6852;SDS011;3465;42.144;24.722;2022-11-30T01:52:56;23.13;;;9.77;;
6852;SDS011;3465;42.144;24.722;2022-11-30T01:58:00;22.33;;;9.87;;
6852;SDS011;3465;42.144;24.722;2022-11-30T02:00:29;21.07;;;9.67;;
6852;SDS011;3465;42.144;24.722;2022-11-30T02:03:09;22.03;;;10.73;;
6852;SDS011;3465;42.144;24.722;2022-11-30T02:05:42;26.33;;;10.80;;
6852;SDS011;3465;42.144;24.722;2022-11-30T02:08:08;22.93;;;10.57;;
6852;SDS011;3465;42.144;24.722;2022-11-30T02:10:35;23.47;;;10.50;;
6852;SDS011;3465;42.144;24.722;2022-11-30T02:13:06;21.87;;;10.07;;
6852;SDS011;3465;42.144;24.722;2022-11-30T02:31:41;23.60;;;10.80;;
6852;SDS011;3465;42.144;24.722;2022-11-30T02:34:12;27.47;;;11.17;;
6852;SDS011;3465;42.144;24.722;2022-11-30T02:36:41;29.03;;;11.93;;
6852;SDS011;3465;42.144;24.722;2022-11-30T02:39:09;25.37;;;10.80;;
6852;SDS011;3465;42.144;24.722;2022-11-30T02:41:36;27.37;;;12.87;;
6852;SDS011;3465;42.144;24.722;2022-11-30T02:44:03;27.43;;;11.97;;
6852;SDS011;3465;42.144;24.722;2022-11-30T02:49:03;27.70;;;12.50;;
6852;SDS011;3465;42.144;24.722;2022-11-30T02:51:35;28.00;;;12.50;;
6852;SDS011;3465;42.144;24.722;2022-11-30T02:54:02;29.07;;;12.87;;
6852;SDS011;3465;42.144;24.722;2022-11-30T02:56:28;29.67;;;12.93;;
6852;SDS011;3465;42.144;24.722;2022-11-30T02:58:54;31.97;;;13.73;;
6852;SDS011;3465;42.144;24.722;2022-11-30T03:01:20;31.40;;;13.57;;
6852;SDS011;3465;42.144;24.722;2022-11-30T03:03:46;31.70;;;13.27;;
6852;SDS011;3465;42.144;24.722;2022-11-30T03:06:11;27.70;;;12.10;;
6852;SDS011;3465;42.144;24.722;2022-11-30T03:08:36;28.53;;;12.23;;
6852;SDS011;3465;42.144;24.722;2022-11-30T03:11:02;27.10;;;12.40;;
6852;SDS011;3465;42.144;24.722;2022-11-30T03:13:31;30.37;;;13.27;;
6852;SDS011;3465;42.144;24.722;2022-11-30T03:16:03;27.67;;;12.70;;
6852;SDS011;3465;42.144;24.722;2022-11-30T03:18:33;29.30;;;12.53;;
6852;SDS011;3465;42.144;24.722;2022-11-30T03:20:58;29.53;;;12.33;;
6852;SDS011;3465;42.144;24.722;2022-11-30T03:23:24;29.90;;;12.73;;
6852;SDS011;3465;42.144;24.722;2022-11-30T03:25:49;29.27;;;14.00;;
6852;SDS011;3465;42.144;24.722;2022-11-30T03:28:14;29.37;;;13.17;;
6852;SDS011;3465;42.144;24.722;2022-11-30T03:30:40;30.63;;;14.50;;
6852;SDS011;3465;42.144;24.722;2022-11-30T03:33:05;34.67;;;15.13;;
6852;SDS011;3465;42.144;24.722;2022-11-30T03:35:31;32.00;;;13.97;;
6852;SDS011;3465;42.144;24.722;2022-11-30T03:37:56;30.83;;;14.17;;
6852;SDS011;3465;42.144;24.722;2022-11-30T03:40:21;26.73;;;12.33;;
6852;SDS011;3465;42.144;24.722;2022-11-30T03:42:47;31.50;;;13.27;;
6852;SDS011;3465;42.144;24.722;2022-11-30T03:45:12;26.40;;;11.40;;
6852;SDS011;3465;42.144;24.722;2022-11-30T03:47:37;28.03;;;12.70;;
6852;SDS011;3465;42.144;24.722;2022-11-30T03:50:03;27.50;;;12.73;;
6852;SDS011;3465;42.144;24.722;2022-11-30T03:52:29;27.40;;;12.37;;
6852;SDS011;3465;42.144;24.722;2022-11-30T03:54:54;27.47;;;12.47;;
6852;SDS011;3465;42.144;24.722;2022-11-30T03:57:19;26.70;;;12.03;;
6852;SDS011;3465;42.144;24.722;2022-11-30T03:59:45;28.10;;;12.70;;
6852;SDS011;3465;42.144;24.722;2022-11-30T04:02:10;22.10;;;11.10;;
6852;SDS011;3465;42.144;24.722;2022-11-30T04:04:35;23.17;;;11.27;;
6852;SDS011;3465;42.144;24.722;2022-11-30T04:07:01;26.60;;;12.10;;
6852;SDS011;3465;42.144;24.722;2022-11-30T04:09:26;23.90;;;11.13;;
6852;SDS011;3465;42.144;24.722;2022-11-30T04:11:52;25.93;;;12.03;;
6852;SDS011;3465;42.144;24.722;2022-11-30T04:14:17;24.17;;;11.70;;
6852;SDS011;3465;42.144;24.722;2022-11-30T04:16:42;22.27;;;10.50;;
6852;SDS011;3465;42.144;24.722;2022-11-30T04:19:08;20.50;;;10.63;;
6852;SDS011;3465;42.144;24.722;2022-11-30T04:21:33;22.33;;;10.67;;
6852;SDS011;3465;42.144;24.722;2022-11-30T04:23:58;20.10;;;10.87;;
6852;SDS011;3465;42.144;24.722;2022-11-30T04:26:24;18.93;;;9.83;;
6852;SDS011;3465;42.144;24.722;2022-11-30T04:28:49;22.07;;;10.87;;
6852;SDS011;3465;42.144;24.722;2022-11-30T04:31:15;19.03;;;9.90;;
6852;SDS011;3465;42.144;24.722;2022-11-30T04:33:40;19.80;;;10.27;;
6852;SDS011;3465;42.144;24.722;2022-11-30T04:36:06;17.97;;;9.33;;
6852;SDS011;3465;42.144;24.722;2022-11-30T04:38:32;19.00;;;9.77;;
6852;SDS011;3465;42.144;24.722;2022-11-30T04:40:58;21.97;;;11.10;;
6852;SDS011;3465;42.144;24.722;2022-11-30T04:43:24;20.23;;;10.77;;
6852;SDS011;3465;42.144;24.722;2022-11-30T04:45:50;21.90;;;10.17;;
6852;SDS011;3465;42.144;24.722;2022-11-30T04:48:16;19.07;;;10.07;;
6852;SDS011;3465;42.144;24.722;2022-11-30T04:50:42;21.03;;;10.80;;
6852;SDS011;3465;42.144;24.722;2022-11-30T04:53:08;18.60;;;10.20;;
6852;SDS011;3465;42.144;24.722;2022-11-30T04:55:35;18.07;;;8.93;;
6852;SDS011;3465;42.144;24.722;2022-11-30T04:58:01;17.93;;;9.27;;
6852;SDS011;3465;42.144;24.722;2022-11-30T05:00:27;15.50;;;8.53;;
6852;SDS011;3465;42.144;24.722;2022-11-30T05:02:54;14.93;;;7.80;;
6852;SDS011;3465;42.144;24.722;2022-11-30T05:05:20;15.57;;;7.90;;
6852;SDS011;3465;42.144;24.722;2022-11-30T05:07:48;15.47;;;7.53;;
6852;SDS011;3465;42.144;24.722;2022-11-30T05:10:15;11.17;;;6.47;;
6852;SDS011;3465;42.144;24.722;2022-11-30T05:12:40;12.77;;;6.83;;
6852;SDS011;3465;42.144;24.722;2022-11-30T05:15:06;12.53;;;6.60;;
6852;SDS011;3465;42.144;24.722;2022-11-30T05:17:32;13.40;;;6.97;;
6852;SDS011;3465;42.144;24.722;2022-11-30T05:19:57;13.20;;;7.07;;
6852;SDS011;3465;42.144;24.722;2022-11-30T05:22:22;13.07;;;7.03;;
6852;SDS011;3465;42.144;24.722;2022-11-30T05:24:48;10.13;;;6.20;;
6852;SDS011;3465;42.144;24.722;2022-11-30T05:27:13;9.37;;;5.83;;
6852;SDS011;3465;42.144;24.722;2022-11-30T05:29:38;10.60;;;5.33;;
6852;SDS011;3465;42.144;24.722;2022-11-30T05:32:04;9.70;;;5.83;;
6852;SDS011;3465;42.144;24.722;2022-11-30T05:34:29;10.70;;;5.73;;
6852;SDS011;3465;42.144;24.722;2022-11-30T05:36:55;10.13;;;6.20;;
6852;SDS011;3465;42.144;24.722;2022-11-30T05:39:20;14.07;;;6.63;;
6852;SDS011;3465;42.144;24.722;2022-11-30T05:41:45;13.57;;;7.23;;
6852;SDS011;3465;42.144;24.722;2022-11-30T05:44:11;11.60;;;5.93;;
6852;SDS011;3465;42.144;24.722;2022-11-30T05:46:37;8.07;;;4.43;;
6852;SDS011;3465;42.144;24.722;2022-11-30T05:49:03;7.90;;;4.97;;
6852;SDS011;3465;42.144;24.722;2022-11-30T05:51:28;8.57;;;5.13;;
6852;SDS011;3465;42.144;24.722;2022-11-30T05:53:54;8.87;;;5.70;;
6852;SDS011;3465;42.144;24.722;2022-11-30T05:56:19;7.83;;;5.00;;
6852;SDS011;3465;42.144;24.722;2022-11-30T05:58:46;8.03;;;5.00;;
6852;SDS011;3465;42.144;24.722;2022-11-30T06:01:19;9.40;;;5.20;;
6852;SDS011;3465;42.144;24.722;2022-11-30T06:03:49;7.57;;;4.63;;
6852;SDS011;3465;42.144;24.722;2022-11-30T06:06:15;10.87;;;5.63;;
6852;SDS011;3465;42.144;24.722;2022-11-30T06:08:41;9.20;;;5.80;;
6852;SDS011;3465;42.144;24.722;2022-11-30T06:11:06;8.20;;;5.70;;
6852;SDS011;3465;42.144;24.722;2022-11-30T06:13:32;8.67;;;5.80;;
6852;SDS011;3465;42.144;24.722;2022-11-30T06:15:58;9.80;;;5.57;;
6852;SDS011;3465;42.144;24.722;2022-11-30T06:18:24;10.27;;;6.10;;
6852;SDS011;3465;42.144;24.722;2022-11-30T06:20:49;8.47;;;5.57;;
6852;SDS011;3465;42.144;24.722;2022-11-30T06:23:15;11.70;;;5.67;;
6852;SDS011;3465;42.144;24.722;2022-11-30T06:25:40;11.07;;;5.93;;
6852;SDS011;3465;42.144;24.722;2022-11-30T06:28:07;9.13;;;5.00;;
6852;SDS011;3465;42.144;24.722;2022-11-30T06:30:34;8.13;;;5.30;;
6852;SDS011;3465;42.144;24.722;2022-11-30T06:32:59;8.23;;;5.33;;
6852;SDS011;3465;42.144;24.722;2022-11-30T06:35:24;8.60;;;5.47;;
6852;SDS011;3465;42.144;24.722;2022-11-30T06:37:50;9.87;;;5.60;;
6852;SDS011;3465;42.144;24.722;2022-11-30T06:40:15;11.07;;;5.70;;
6852;SDS011;3465;42.144;24.722;2022-11-30T06:42:41;10.17;;;5.80;;
6852;SDS011;3465;42.144;24.722;2022-11-30T06:45:07;7.87;;;5.00;;
6852;SDS011;3465;42.144;24.722;2022-11-30T06:47:32;10.80;;;5.87;;
6852;SDS011;3465;42.144;24.722;2022-11-30T06:49:58;8.93;;;5.80;;
6852;SDS011;3465;42.144;24.722;2022-11-30T06:52:23;16.00;;;8.10;;
6852;SDS011;3465;42.144;24.722;2022-11-30T06:54:49;8.90;;;5.00;;
6852;SDS011;3465;42.144;24.722;2022-11-30T06:57:14;9.30;;;5.93;;
6852;SDS011;3465;42.144;24.722;2022-11-30T06:59:40;10.40;;;5.70;;
6852;SDS011;3465;42.144;24.722;2022-11-30T07:02:13;8.23;;;5.63;;
6852;SDS011;3465;42.144;24.722;2022-11-30T07:04:40;8.20;;;6.20;;
6852;SDS011;3465;42.144;24.722;2022-11-30T07:07:05;10.60;;;5.93;;
6852;SDS011;3465;42.144;24.722;2022-11-30T07:09:31;9.23;;;5.70;;
6852;SDS011;3465;42.144;24.722;2022-11-30T07:12:00;6.90;;;5.27;;
6852;SDS011;3465;42.144;24.722;2022-11-30T07:14:26;7.97;;;5.03;;
6852;SDS011;3465;42.144;24.722;2022-11-30T07:16:51;9.37;;;5.33;;
6852;SDS011;3465;42.144;24.722;2022-11-30T07:19:17;11.57;;;5.10;;
6852;SDS011;3465;42.144;24.722;2022-11-30T07:21:42;8.83;;;5.53;;
6852;SDS011;3465;42.144;24.722;2022-11-30T07:24:10;7.20;;;4.70;;
6852;SDS011;3465;42.144;24.722;2022-11-30T07:26:54;10.23;;;4.60;;
6852;SDS011;3465;42.144;24.722;2022-11-30T07:29:20;8.73;;;4.80;;
6852;SDS011;3465;42.144;24.722;2022-11-30T07:31:49;8.87;;;5.47;;
6852;SDS011;3465;42.144;24.722;2022-11-30T07:34:16;7.23;;;5.03;;
6852;SDS011;3465;42.144;24.722;2022-11-30T07:36:42;9.43;;;4.93;;
6852;SDS011;3465;42.144;24.722;2022-11-30T07:39:08;7.90;;;4.80;;
6852;SDS011;3465;42.144;24.722;2022-11-30T07:41:33;7.13;;;4.90;;
6852;SDS011;3465;42.144;24.722;2022-11-30T07:43:59;5.17;;;4.10;;
6852;SDS011;3465;42.144;24.722;2022-11-30T07:46:24;7.13;;;4.80;;
6852;SDS011;3465;42.144;24.722;2022-11-30T07:48:49;5.23;;;3.80;;
6852;SDS011;3465;42.144;24.722;2022-11-30T07:51:19;6.33;;;4.23;;
6852;SDS011;3465;42.144;24.722;2022-11-30T07:53:45;8.37;;;4.20;;
6852;SDS011;3465;42.144;24.722;2022-11-30T07:56:12;7.27;;;4.23;;
6852;SDS011;3465;42.144;24.722;2022-11-30T07:58:39;5.57;;;3.77;;
6852;SDS011;3465;42.144;24.722;2022-11-30T08:01:07;6.77;;;4.63;;
6852;SDS011;3465;42.144;24.722;2022-11-30T08:03:37;8.00;;;3.80;;
6852;SDS011;3465;42.144;24.722;2022-11-30T08:06:04;6.83;;;4.30;;
6852;SDS011;3465;42.144;24.722;2022-11-30T08:08:32;6.47;;;4.37;;
6852;SDS011;3465;42.144;24.722;2022-11-30T08:10:59;5.27;;;3.93;;
6852;SDS011;3465;42.144;24.722;2022-11-30T08:13:25;5.53;;;3.93;;
6852;SDS011;3465;42.144;24.722;2022-11-30T08:15:51;4.67;;;3.57;;
6852;SDS011;3465;42.144;24.722;2022-11-30T08:18:17;5.10;;;3.87;;
6852;SDS011;3465;42.144;24.722;2022-11-30T08:20:42;5.33;;;3.50;;
6852;SDS011;3465;42.144;24.722;2022-11-30T08:23:09;6.00;;;3.83;;
6852;SDS011;3465;42.144;24.722;2022-11-30T08:25:35;6.97;;;4.13;;
6852;SDS011;3465;42.144;24.722;2022-11-30T08:28:00;5.50;;;4.00;;
6852;SDS011;3465;42.144;24.722;2022-11-30T08:30:26;6.27;;;3.80;;
6852;SDS011;3465;42.144;24.722;2022-11-30T08:32:51;7.27;;;4.50;;
6852;SDS011;3465;42.144;24.722;2022-11-30T08:35:16;8.37;;;4.57;;
6852;SDS011;3465;42.144;24.722;2022-11-30T08:37:43;8.63;;;3.73;;
6852;SDS011;3465;42.144;24.722;2022-11-30T08:40:09;6.10;;;4.10;;
6852;SDS011;3465;42.144;24.722;2022-11-30T08:42:34;7.27;;;4.13;;
6852;SDS011;3465;42.144;24.722;2022-11-30T08:45:00;8.73;;;4.13;;
6852;SDS011;3465;42.144;24.722;2022-11-30T08:47:27;7.30;;;4.50;;
6852;SDS011;3465;42.144;24.722;2022-11-30T08:49:53;5.70;;;4.07;;
6852;SDS011;3465;42.144;24.722;2022-11-30T08:52:18;7.00;;;4.13;;
6852;SDS011;3465;42.144;24.722;2022-11-30T08:54:44;6.87;;;3.93;;
6852;SDS011;3465;42.144;24.722;2022-11-30T08:57:10;6.23;;;3.90;;
6852;SDS011;3465;42.144;24.722;2022-11-30T08:59:36;6.90;;;3.70;;
6852;SDS011;3465;42.144;24.722;2022-11-30T09:02:01;6.70;;;3.97;;
6852;SDS011;3465;42.144;24.722;2022-11-30T09:04:27;5.07;;;3.73;;
6852;SDS011;3465;42.144;24.722;2022-11-30T09:06:53;5.17;;;3.53;;
6852;SDS011;3465;42.144;24.722;2022-11-30T09:09:22;5.40;;;3.77;;
6852;SDS011;3465;42.144;24.722;2022-11-30T09:11:48;7.37;;;4.10;;
6852;SDS011;3465;42.144;24.722;2022-11-30T09:14:14;6.97;;;4.00;;
6852;SDS011;3465;42.144;24.722;2022-11-30T09:16:39;7.67;;;4.30;;
6852;SDS011;3465;42.144;24.722;2022-11-30T09:19:04;16.40;;;4.50;;
6852;SDS011;3465;42.144;24.722;2022-11-30T09:21:30;7.73;;;4.37;;
6852;SDS011;3465;42.144;24.722;2022-11-30T09:23:55;8.57;;;3.60;;
6852;SDS011;3465;42.144;24.722;2022-11-30T09:26:21;7.23;;;3.90;;
6852;SDS011;3465;42.144;24.722;2022-11-30T09:28:49;7.47;;;3.80;;
6852;SDS011;3465;42.144;24.722;2022-11-30T09:31:16;4.63;;;3.63;;
6852;SDS011;3465;42.144;24.722;2022-11-30T09:33:43;8.47;;;4.17;;
6852;SDS011;3465;42.144;24.722;2022-11-30T09:36:10;4.73;;;4.00;;
6852;SDS011;3465;42.144;24.722;2022-11-30T09:38:37;10.10;;;4.50;;
6852;SDS011;3465;42.144;24.722;2022-11-30T09:41:05;9.50;;;4.27;;
6852;SDS011;3465;42.144;24.722;2022-11-30T09:44:03;7.67;;;4.80;;
6852;SDS011;3465;42.144;24.722;2022-11-30T09:51:55;8.90;;;5.13;;
6852;SDS011;3465;42.144;24.722;2022-11-30T09:54:27;7.70;;;5.10;;
6852;SDS011;3465;42.144;24.722;2022-11-30T09:57:04;8.07;;;5.60;;
6852;SDS011;3465;42.144;24.722;2022-11-30T09:59:36;10.63;;;5.73;;
6852;SDS011;3465;42.144;24.722;2022-11-30T10:02:09;10.10;;;6.27;;
6852;SDS011;3465;42.144;24.722;2022-11-30T10:04:39;9.33;;;5.10;;
6852;SDS011;3465;42.144;24.722;2022-11-30T10:07:08;8.33;;;5.20;;
6852;SDS011;3465;42.144;24.722;2022-11-30T10:10:46;9.90;;;5.90;;
6852;SDS011;3465;42.144;24.722;2022-11-30T10:13:35;10.67;;;5.33;;
6852;SDS011;3465;42.144;24.722;2022-11-30T10:24:15;9.17;;;5.50;;
6852;SDS011;3465;42.144;24.722;2022-11-30T10:27:00;10.63;;;5.90;;
6852;SDS011;3465;42.144;24.722;2022-11-30T10:29:36;11.97;;;6.17;;
6852;SDS011;3465;42.144;24.722;2022-11-30T10:32:20;10.47;;;5.60;;
6852;SDS011;3465;42.144;24.722;2022-11-30T10:34:53;9.43;;;4.83;;
6852;SDS011;3465;42.144;24.722;2022-11-30T10:37:24;10.00;;;5.77;;
6852;SDS011;3465;42.144;24.722;2022-11-30T10:42:41;9.03;;;5.50;;
6852;SDS011;3465;42.144;24.722;2022-11-30T10:45:16;8.37;;;5.47;;
6852;SDS011;3465;42.144;24.722;2022-11-30T10:48:02;8.07;;;5.00;;
6852;SDS011;3465;42.144;24.722;2022-11-30T10:50:36;10.17;;;5.97;;
6852;SDS011;3465;42.144;24.722;2022-11-30T10:53:01;8.90;;;5.67;;
6852;SDS011;3465;42.144;24.722;2022-11-30T10:55:28;10.20;;;5.57;;
6852;SDS011;3465;42.144;24.722;2022-11-30T10:58:00;9.17;;;5.60;;
6852;SDS011;3465;42.144;24.722;2022-11-30T11:00:31;9.17;;;5.53;;
6852;SDS011;3465;42.144;24.722;2022-11-30T11:02:56;10.97;;;6.37;;
6852;SDS011;3465;42.144;24.722;2022-11-30T11:05:29;8.30;;;5.47;;
6852;SDS011;3465;42.144;24.722;2022-11-30T11:07:56;9.07;;;5.37;;
6852;SDS011;3465;42.144;24.722;2022-11-30T11:10:44;10.07;;;5.73;;
6852;SDS011;3465;42.144;24.722;2022-11-30T11:13:14;7.77;;;5.40;;
6852;SDS011;3465;42.144;24.722;2022-11-30T11:15:41;8.23;;;5.37;;
6852;SDS011;3465;42.144;24.722;2022-11-30T11:18:24;12.23;;;6.07;;
6852;SDS011;3465;42.144;24.722;2022-11-30T11:21:34;9.47;;;6.00;;
6852;SDS011;3465;42.144;24.722;2022-11-30T11:23:44;9.07;;;6.10;;
6852;SDS011;3465;42.144;24.722;2022-11-30T11:26:24;11.63;;;5.80;;
6852;SDS011;3465;42.144;24.722;2022-11-30T11:28:52;9.93;;;5.90;;
6852;SDS011;3465;42.144;24.722;2022-11-30T11:31:38;9.63;;;5.90;;
6852;SDS011;3465;42.144;24.722;2022-11-30T11:34:24;10.70;;;6.40;;
6852;SDS011;3465;42.144;24.722;2022-11-30T11:42:48;11.07;;;6.40;;
6852;SDS011;3465;42.144;24.722;2022-11-30T11:45:17;14.93;;;6.73;;
6852;SDS011;3465;42.144;24.722;2022-11-30T11:47:46;12.37;;;6.80;;
6852;SDS011;3465;42.144;24.722;2022-11-30T11:52:53;12.20;;;7.70;;
6852;SDS011;3465;42.144;24.722;2022-11-30T11:55:38;13.20;;;7.60;;
6852;SDS011;3465;42.144;24.722;2022-11-30T11:58:07;16.33;;;7.60;;
6852;SDS011;3465;42.144;24.722;2022-11-30T12:00:40;14.43;;;7.80;;
6852;SDS011;3465;42.144;24.722;2022-11-30T12:03:16;17.83;;;8.00;;
6852;SDS011;3465;42.144;24.722;2022-11-30T12:08:48;13.70;;;7.60;;
6852;SDS011;3465;42.144;24.722;2022-11-30T12:14:01;15.30;;;8.03;;
6852;SDS011;3465;42.144;24.722;2022-11-30T12:21:50;13.40;;;6.90;;
6852;SDS011;3465;42.144;24.722;2022-11-30T12:36:24;14.47;;;6.73;;
6852;SDS011;3465;42.144;24.722;2022-11-30T12:43:53;12.97;;;7.07;;
6852;SDS011;3465;42.144;24.722;2022-11-30T12:49:11;11.53;;;6.90;;
6852;SDS011;3465;42.144;24.722;2022-11-30T12:54:48;13.20;;;5.93;;
6852;SDS011;3465;42.144;24.722;2022-11-30T12:57:25;13.50;;;6.53;;
6852;SDS011;3465;42.144;24.722;2022-11-30T13:05:16;14.90;;;7.57;;
6852;SDS011;3465;42.144;24.722;2022-11-30T13:08:04;12.33;;;7.03;;
6852;SDS011;3465;42.144;24.722;2022-11-30T13:10:45;13.73;;;6.90;;
6852;SDS011;3465;42.144;24.722;2022-11-30T13:13:15;10.93;;;6.97;;
6852;SDS011;3465;42.144;24.722;2022-11-30T13:15:45;13.50;;;7.23;;
6852;SDS011;3465;42.144;24.722;2022-11-30T13:18:14;11.40;;;6.93;;
6852;SDS011;3465;42.144;24.722;2022-11-30T13:23:21;10.73;;;6.03;;
6852;SDS011;3465;42.144;24.722;2022-11-30T13:31:52;10.40;;;6.17;;
6852;SDS011;3465;42.144;24.722;2022-11-30T13:34:22;9.73;;;5.97;;
6852;SDS011;3465;42.144;24.722;2022-11-30T13:36:49;10.23;;;6.10;;
6852;SDS011;3465;42.144;24.722;2022-11-30T13:39:20;9.50;;;6.10;;
6852;SDS011;3465;42.144;24.722;2022-11-30T13:44:31;14.10;;;6.17;;
6852;SDS011;3465;42.144;24.722;2022-11-30T13:46:59;12.10;;;6.60;;
6852;SDS011;3465;42.144;24.722;2022-11-30T13:49:28;10.53;;;6.07;;
6852;SDS011;3465;42.144;24.722;2022-11-30T13:51:55;12.67;;;6.93;;
6852;SDS011;3465;42.144;24.722;2022-11-30T13:59:52;11.17;;;6.93;;
6852;SDS011;3465;42.144;24.722;2022-11-30T14:07:39;14.33;;;6.80;;
6852;SDS011;3465;42.144;24.722;2022-11-30T14:23:10;10.67;;;6.57;;
6852;SDS011;3465;42.144;24.722;2022-11-30T14:25:40;10.93;;;6.67;;
6852;SDS011;3465;42.144;24.722;2022-11-30T14:28:13;11.97;;;6.50;;
6852;SDS011;3465;42.144;24.722;2022-11-30T14:30:41;11.90;;;7.40;;
6852;SDS011;3465;42.144;24.722;2022-11-30T14:33:26;11.10;;;6.60;;
6852;SDS011;3465;42.144;24.722;2022-11-30T14:36:03;13.33;;;7.13;;
6852;SDS011;3465;42.144;24.722;2022-11-30T14:38:31;9.80;;;6.30;;
6852;SDS011;3465;42.144;24.722;2022-11-30T14:41:03;11.27;;;6.63;;
6852;SDS011;3465;42.144;24.722;2022-11-30T14:43:29;10.57;;;6.77;;
6852;SDS011;3465;42.144;24.722;2022-11-30T14:45:58;12.20;;;6.40;;
6852;SDS011;3465;42.144;24.722;2022-11-30T14:48:25;14.23;;;6.37;;
6852;SDS011;3465;42.144;24.722;2022-11-30T14:50:52;9.00;;;6.03;;
6852;SDS011;3465;42.144;24.722;2022-11-30T14:56:22;11.53;;;7.33;;
6852;SDS011;3465;42.144;24.722;2022-11-30T14:58:57;11.70;;;6.60;;
6852;SDS011;3465;42.144;24.722;2022-11-30T15:01:32;13.17;;;6.90;;
6852;SDS011;3465;42.144;24.722;2022-11-30T15:04:06;16.87;;;9.53;;
6852;SDS011;3465;42.144;24.722;2022-11-30T15:06:37;16.60;;;7.90;;
6852;SDS011;3465;42.144;24.722;2022-11-30T15:09:03;15.53;;;7.17;;
6852;SDS011;3465;42.144;24.722;2022-11-30T15:11:39;14.20;;;8.20;;
6852;SDS011;3465;42.144;24.722;2022-11-30T15:14:07;16.17;;;8.67;;
6852;SDS011;3465;42.144;24.722;2022-11-30T15:16:34;17.13;;;8.47;;
6852;SDS011;3465;42.144;24.722;2022-11-30T15:19:00;19.67;;;8.37;;
6852;SDS011;3465;42.144;24.722;2022-11-30T15:21:58;17.57;;;8.83;;
6852;SDS011;3465;42.144;24.722;2022-11-30T15:24:24;17.47;;;9.43;;
6852;SDS011;3465;42.144;24.722;2022-11-30T15:29:58;17.10;;;9.43;;
6852;SDS011;3465;42.144;24.722;2022-11-30T15:32:26;24.30;;;12.00;;
6852;SDS011;3465;42.144;24.722;2022-11-30T15:34:53;19.77;;;9.97;;
6852;SDS011;3465;42.144;24.722;2022-11-30T15:37:31;19.23;;;9.13;;
6852;SDS011;3465;42.144;24.722;2022-11-30T15:39:59;18.77;;;8.60;;
6852;SDS011;3465;42.144;24.722;2022-11-30T15:42:30;16.47;;;9.50;;
6852;SDS011;3465;42.144;24.722;2022-11-30T15:45:49;18.20;;;9.60;;
6852;SDS011;3465;42.144;24.722;2022-11-30T15:48:02;16.80;;;8.83;;
6852;SDS011;3465;42.144;24.722;2022-11-30T15:50:52;18.30;;;10.17;;
6852;SDS011;3465;42.144;24.722;2022-11-30T15:53:27;20.40;;;9.90;;
6852;SDS011;3465;42.144;24.722;2022-11-30T15:55:57;27.97;;;10.07;;
6852;SDS011;3465;42.144;24.722;2022-11-30T15:58:39;19.50;;;9.70;;
6852;SDS011;3465;42.144;24.722;2022-11-30T16:01:14;17.63;;;9.80;;
6852;SDS011;3465;42.144;24.722;2022-11-30T16:06:20;16.27;;;9.97;;
6852;SDS011;3465;42.144;24.722;2022-11-30T16:08:47;18.47;;;8.57;;
6852;SDS011;3465;42.144;24.722;2022-11-30T16:11:13;18.83;;;9.43;;
6852;SDS011;3465;42.144;24.722;2022-11-30T16:13:38;16.13;;;9.17;;
6852;SDS011;3465;42.144;24.722;2022-11-30T16:16:09;18.50;;;9.33;;
6852;SDS011;3465;42.144;24.722;2022-11-30T16:18:36;12.60;;;7.10;;
6852;SDS011;3465;42.144;24.722;2022-11-30T16:21:02;18.70;;;9.27;;
6852;SDS011;3465;42.144;24.722;2022-11-30T16:23:28;16.07;;;8.93;;
6852;SDS011;3465;42.144;24.722;2022-11-30T16:25:54;13.37;;;8.23;;
6852;SDS011;3465;42.144;24.722;2022-11-30T16:28:20;17.43;;;9.87;;
6852;SDS011;3465;42.144;24.722;2022-11-30T16:30:46;13.77;;;8.67;;
6852;SDS011;3465;42.144;24.722;2022-11-30T16:35:44;16.93;;;8.57;;
6852;SDS011;3465;42.144;24.722;2022-11-30T16:38:11;15.33;;;8.03;;
6852;SDS011;3465;42.144;24.722;2022-11-30T16:40:36;13.13;;;7.20;;
6852;SDS011;3465;42.144;24.722;2022-11-30T16:43:02;18.33;;;9.33;;
6852;SDS011;3465;42.144;24.722;2022-11-30T16:45:32;11.10;;;6.87;;
6852;SDS011;3465;42.144;24.722;2022-11-30T16:48:00;12.90;;;7.57;;
6852;SDS011;3465;42.144;24.722;2022-11-30T16:50:25;13.43;;;7.77;;
6852;SDS011;3465;42.144;24.722;2022-11-30T16:52:51;10.97;;;6.80;;
6852;SDS011;3465;42.144;24.722;2022-11-30T16:55:20;12.23;;;7.30;;
6852;SDS011;3465;42.144;24.722;2022-11-30T16:57:47;12.57;;;6.87;;
6852;SDS011;3465;42.144;24.722;2022-11-30T17:00:14;10.43;;;6.33;;
6852;SDS011;3465;42.144;24.722;2022-11-30T17:02:48;11.87;;;7.17;;
6852;SDS011;3465;42.144;24.722;2022-11-30T17:05:17;9.30;;;5.80;;
6852;SDS011;3465;42.144;24.722;2022-11-30T17:07:43;8.83;;;5.70;;